Time;durP1;ratioP1;P1;durP2;ratioP2;P2;SDS_P1;SDS_P2;PMS_P1;PMS_P2;Temp;Humidity;BMP_temperature;BMP_pressure;BME280_temperature;BME280_humidity;BME280_pressure;Samples;Min_cycle;Max_cycle;Signal;HPM_P1;HPM_P2
2021/08/26 00:07:54;;;;;;;11.30;9.13;;;15.20;99.90;;;;;;5096070;28;20032;-69
2021/08/26 00:10:22;;;;;;;11.73;8.88;;;15.30;99.90;;;;;;5095586;28;20084;-70
2021/08/26 00:12:48;;;;;;;13.10;9.38;;;15.20;99.90;;;;;;5094896;28;20541;-69
2021/08/26 00:15:14;;;;;;;14.20;9.73;;;15.20;99.90;;;;;;5096564;28;20031;-69
2021/08/26 00:17:40;;;;;;;12.60;8.80;;;15.20;99.90;;;;;;5078820;28;20437;-69
2021/08/26 00:20:06;;;;;;;11.65;8.10;;;15.30;99.90;;;;;;5096258;28;20027;-69
2021/08/26 00:22:32;;;;;;;13.23;8.70;;;15.20;99.90;;;;;;5096482;28;20074;-69
2021/08/26 00:24:58;;;;;;;11.27;6.28;;;15.30;99.90;;;;;;5096477;28;20343;-69
2021/08/26 00:27:24;;;;;;;9.18;5.32;;;15.10;99.90;;;;;;5096401;28;20400;-69
2021/08/26 00:29:50;;;;;;;8.77;5.20;;;15.00;99.90;;;;;;5095337;28;20346;-69
2021/08/26 00:32:15;;;;;;;7.38;4.63;;;15.00;99.90;;;;;;5095724;28;20039;-69
2021/08/26 00:34:41;;;;;;;10.77;5.15;;;14.90;99.90;;;;;;5095501;28;20097;-69
2021/08/26 00:37:07;;;;;;;14.07;4.80;;;14.90;99.90;;;;;;5095851;28;20029;-69
2021/08/26 00:39:32;;;;;;;9.63;4.53;;;14.90;99.90;;;;;;5096112;28;20024;-69
2021/08/26 00:41:58;;;;;;;7.63;4.53;;;14.80;99.90;;;;;;5096020;28;20029;-69
2021/08/26 00:44:23;;;;;;;7.63;4.32;;;14.80;99.90;;;;;;5094530;28;20024;-69
2021/08/26 00:46:49;;;;;;;8.98;4.68;;;14.80;99.90;;;;;;5095698;28;20036;-69
2021/08/26 00:49:16;;;;;;;8.52;4.57;;;14.90;99.90;;;;;;5095913;28;20377;-69
2021/08/26 00:51:44;;;;;;;8.55;4.65;;;14.90;99.90;;;;;;5095551;28;20020;-69
2021/08/26 00:54:10;;;;;;;9.48;4.65;;;14.90;99.90;;;;;;5094288;28;20030;-69
2021/08/26 00:56:37;;;;;;;8.15;4.43;;;14.90;99.90;;;;;;5095448;28;20460;-69
2021/08/26 00:59:06;;;;;;;10.55;4.05;;;14.90;99.90;;;;;;5094209;28;20104;-69
2021/08/26 01:01:46;;;;;;;8.60;4.25;;;14.90;99.90;;;;;;5095079;28;20097;-69
2021/08/26 01:04:33;;;;;;;8.95;4.68;;;14.90;99.90;;;;;;5094476;28;20020;-69
2021/08/26 01:07:24;;;;;;;8.85;4.43;;;14.90;99.90;;;;;;5094080;28;20518;-69
2021/08/26 01:09:54;;;;;;;9.15;5.03;;;14.90;99.90;;;;;;5095420;28;20028;-69
2021/08/26 01:12:23;;;;;;;9.55;5.63;;;14.90;99.90;;;;;;5095172;28;20106;-69
2021/08/26 01:14:49;;;;;;;9.80;5.22;;;15.00;99.90;;;;;;5095292;28;20031;-69
2021/08/26 01:17:20;;;;;;;9.00;5.07;;;14.90;99.90;;;;;;5095381;28;20027;-69
2021/08/26 01:19:45;;;;;;;10.07;5.30;;;14.90;99.90;;;;;;5095314;28;20485;-69
2021/08/26 01:22:11;;;;;;;10.40;5.40;;;14.90;99.90;;;;;;5094942;28;20048;-69
2021/08/26 01:24:37;;;;;;;9.35;5.13;;;14.90;99.90;;;;;;5094695;28;20105;-69
2021/08/26 01:27:05;;;;;;;13.00;5.45;;;14.80;99.90;;;;;;5095162;28;20103;-69
2021/08/26 01:29:30;;;;;;;13.60;5.82;;;14.80;99.90;;;;;;5095125;28;20446;-69
2021/08/26 01:31:56;;;;;;;15.13;5.90;;;14.80;99.90;;;;;;5095069;28;20024;-69
2021/08/26 01:34:22;;;;;;;12.55;5.57;;;14.80;99.90;;;;;;5094558;28;20478;-69
2021/08/26 01:36:47;;;;;;;9.27;5.35;;;14.70;99.90;;;;;;5093269;28;20016;-69
2021/08/26 01:39:15;;;;;;;14.02;5.80;;;14.70;99.90;;;;;;5095027;28;20012;-69
2021/08/26 01:41:50;;;;;;;13.13;5.78;;;14.70;99.90;;;;;;5094687;28;20430;-69
2021/08/26 01:44:18;;;;;;;13.88;6.53;;;14.60;99.90;;;;;;5094934;28;20023;-69
2021/08/26 01:46:43;;;;;;;11.93;6.25;;;14.70;99.90;;;;;;5094881;28;20421;-69
2021/08/26 01:49:09;;;;;;;7.68;5.50;;;14.70;99.90;;;;;;5094562;28;20107;-69
2021/08/26 01:51:38;;;;;;;11.98;5.85;;;14.70;99.90;;;;;;5094267;28;20112;-69
2021/08/26 01:54:03;;;;;;;16.83;5.63;;;14.70;99.90;;;;;;5093204;28;20450;-69
2021/08/26 01:56:29;;;;;;;12.95;5.97;;;14.70;99.90;;;;;;5094720;28;20051;-69
2021/08/26 01:58:56;;;;;;;11.65;5.93;;;14.70;99.90;;;;;;5094686;28;20059;-69
2021/08/26 02:01:21;;;;;;;14.13;5.97;;;14.60;99.90;;;;;;5094648;28;20031;-69
2021/08/26 02:03:47;;;;;;;13.50;5.28;;;14.70;99.90;;;;;;5092679;28;20024;-69
2021/08/26 02:06:12;;;;;;;16.23;5.93;;;14.60;99.90;;;;;;5094287;28;20096;-69
2021/08/26 02:08:38;;;;;;;13.10;5.68;;;14.60;99.90;;;;;;5094571;28;20030;-69
2021/08/26 02:11:04;;;;;;;12.20;5.28;;;14.50;99.90;;;;;;5093938;28;20034;-69
2021/08/26 02:13:29;;;;;;;14.63;5.68;;;14.60;99.90;;;;;;5094219;28;20024;-69
2021/08/26 02:15:55;;;;;;;8.43;4.53;;;14.50;99.90;;;;;;5094361;28;20028;-69
2021/08/26 02:18:20;;;;;;;12.30;4.88;;;14.50;99.90;;;;;;5094144;28;20020;-69
2021/08/26 02:20:46;;;;;;;9.68;4.65;;;14.50;99.90;;;;;;5094353;28;20500;-69
2021/08/26 02:23:11;;;;;;;13.85;4.93;;;14.50;99.90;;;;;;5094333;28;20030;-69
2021/08/26 02:25:37;;;;;;;12.23;4.70;;;14.50;99.90;;;;;;5094337;28;20035;-69
2021/08/26 02:28:02;;;;;;;11.82;4.93;;;14.50;99.90;;;;;;5093011;28;20024;-69
2021/08/26 02:30:28;;;;;;;11.30;5.30;;;14.50;99.90;;;;;;5093977;28;20461;-69
2021/08/26 02:32:54;;;;;;;10.00;4.70;;;14.50;99.90;;;;;;5092774;28;20486;-69
2021/08/26 02:35:19;;;;;;;12.18;5.68;;;14.50;99.90;;;;;;5093456;28;20097;-69
2021/08/26 02:37:45;;;;;;;13.25;5.45;;;14.50;99.90;;;;;;5093907;28;20020;-69
2021/08/26 02:40:11;;;;;;;12.50;5.22;;;14.50;99.90;;;;;;5093875;28;20358;-69
2021/08/26 02:42:36;;;;;;;15.07;5.78;;;14.50;99.90;;;;;;5093591;28;20046;-69
2021/08/26 02:45:03;;;;;;;15.23;5.88;;;14.50;99.90;;;;;;5094099;28;20034;-69
2021/08/26 02:47:28;;;;;;;18.33;6.00;;;14.50;99.90;;;;;;5094094;28;20031;-69
2021/08/26 02:49:54;;;;;;;14.45;5.97;;;14.40;99.90;;;;;;5094042;28;20036;-69
2021/08/26 02:52:20;;;;;;;14.60;5.43;;;14.50;99.90;;;;;;5093741;28;20380;-69
2021/08/26 02:54:45;;;;;;;15.00;5.38;;;14.50;99.90;;;;;;5093933;28;20030;-69
2021/08/26 02:57:11;;;;;;;13.63;6.13;;;14.40;99.90;;;;;;5093967;28;20059;-69
2021/08/26 02:59:36;;;;;;;16.85;5.78;;;14.40;99.90;;;;;;5093998;28;20028;-69
2021/08/26 03:02:02;;;;;;;15.30;5.60;;;14.40;99.90;;;;;;5093956;28;20060;-69
2021/08/26 03:04:27;;;;;;;12.63;5.07;;;14.30;99.90;;;;;;5093403;28;20031;-69
2021/08/26 03:06:53;;;;;;;17.65;5.00;;;14.20;99.90;;;;;;5093635;28;20035;-69
2021/08/26 03:09:18;;;;;;;14.43;4.68;;;14.20;99.90;;;;;;5093905;28;20032;-69
2021/08/26 03:11:44;;;;;;;11.68;3.90;;;14.20;99.90;;;;;;5092410;28;20373;-69
2021/08/26 03:14:10;;;;;;;20.00;5.38;;;14.20;99.90;;;;;;5092586;28;20035;-69
2021/08/26 03:16:36;;;;;;;12.57;5.15;;;14.10;99.90;;;;;;5094667;28;20024;-69
2021/08/26 03:19:01;;;;;;;13.85;5.53;;;14.10;99.90;;;;;;5097722;28;20035;-69
2021/08/26 03:21:27;;;;;;;16.63;5.35;;;14.10;99.90;;;;;;5097703;28;20020;-69
2021/08/26 03:23:52;;;;;;;11.73;5.43;;;14.10;99.90;;;;;;5097612;28;20107;-69
2021/08/26 03:26:18;;;;;;;15.13;6.15;;;14.10;99.90;;;;;;5096133;28;20055;-69
2021/08/26 03:28:43;;;;;;;20.48;7.00;;;14.10;99.90;;;;;;5097261;28;20047;-69
2021/08/26 03:31:09;;;;;;;18.38;6.63;;;14.10;99.90;;;;;;5097251;28;20028;-69
2021/08/26 03:33:34;;;;;;;18.00;6.38;;;14.10;99.90;;;;;;5096933;28;20079;-69
2021/08/26 03:36:00;;;;;;;16.40;6.80;;;14.00;99.90;;;;;;5097315;28;20035;-69
2021/08/26 03:38:26;;;;;;;22.05;6.60;;;14.10;99.90;;;;;;5097382;28;20020;-69
2021/08/26 03:40:52;;;;;;;19.48;6.15;;;14.10;99.90;;;;;;5097327;28;20349;-69
2021/08/26 03:43:17;;;;;;;17.30;5.97;;;14.10;99.90;;;;;;5097016;28;20020;-69
2021/08/26 03:45:43;;;;;;;19.63;6.88;;;14.10;99.90;;;;;;5097237;28;20032;-69
2021/08/26 03:48:09;;;;;;;19.38;6.05;;;14.10;99.90;;;;;;5095736;28;20032;-69
2021/08/26 03:50:34;;;;;;;12.00;5.93;;;14.10;99.90;;;;;;5096599;28;20099;-69
2021/08/26 03:53:00;;;;;;;21.85;6.97;;;14.10;99.90;;;;;;5097104;28;20111;-69
2021/08/26 03:55:25;;;;;;;17.08;7.00;;;14.10;99.90;;;;;;5097015;28;20031;-69
2021/08/26 03:57:51;;;;;;;17.30;6.20;;;14.10;99.90;;;;;;5095579;28;20024;-69
2021/08/26 04:00:16;;;;;;;17.27;6.03;;;14.00;99.90;;;;;;5095154;28;20020;-69
2021/08/26 04:02:42;;;;;;;18.85;6.43;;;14.00;99.90;;;;;;5097448;28;20027;-69
2021/08/26 04:05:08;;;;;;;15.38;6.32;;;14.00;99.90;;;;;;5096851;28;20020;-69
2021/08/26 04:07:34;;;;;;;21.95;7.05;;;14.00;99.90;;;;;;5096563;28;20052;-69
2021/08/26 04:09:59;;;;;;;15.20;5.93;;;14.00;99.90;;;;;;5096764;28;20043;-69
2021/08/26 04:12:27;;;;;;;24.05;7.30;;;14.00;99.90;;;;;;5096166;28;20085;-69
2021/08/26 04:14:53;;;;;;;21.52;6.50;;;14.00;99.90;;;;;;5094747;28;20435;-69
2021/08/26 04:17:18;;;;;;;20.33;6.25;;;14.00;99.90;;;;;;5096655;28;20099;-69
2021/08/26 04:19:44;;;;;;;22.48;7.05;;;14.00;99.90;;;;;;5096568;28;20488;-69
2021/08/26 04:22:09;;;;;;;21.65;6.63;;;14.00;99.90;;;;;;5096554;28;20020;-69
2021/08/26 04:24:35;;;;;;;21.52;6.78;;;14.00;99.90;;;;;;5094783;28;20028;-69
2021/08/26 04:27:00;;;;;;;20.75;6.63;;;14.00;99.90;;;;;;5096193;28;20025;-69
2021/08/26 04:29:26;;;;;;;20.08;6.60;;;14.00;99.90;;;;;;5096066;28;20418;-69
2021/08/26 04:31:51;;;;;;;18.35;6.72;;;14.00;99.90;;;;;;5096090;28;20039;-69
2021/08/26 04:34:17;;;;;;;17.80;6.40;;;14.00;99.90;;;;;;5094511;28;20044;-69
2021/08/26 04:36:42;;;;;;;18.20;7.53;;;14.00;99.90;;;;;;5096221;28;20095;-69
2021/08/26 04:39:08;;;;;;;17.23;5.82;;;14.00;99.90;;;;;;5096216;28;20100;-69
2021/08/26 04:41:34;;;;;;;16.60;6.07;;;14.00;99.90;;;;;;5094705;28;20069;-69
2021/08/26 04:43:59;;;;;;;21.42;6.60;;;14.00;99.90;;;;;;5096122;28;20035;-69
2021/08/26 04:46:25;;;;;;;19.52;6.47;;;14.00;99.90;;;;;;5096101;28;20073;-69
2021/08/26 04:48:50;;;;;;;18.85;6.95;;;14.10;99.90;;;;;;5094718;28;20016;-69
2021/08/26 04:51:15;;;;;;;17.55;6.65;;;14.10;99.90;;;;;;5095657;28;20024;-69
2021/08/26 04:53:43;;;;;;;20.65;6.82;;;14.10;99.90;;;;;;5095906;28;20024;-69
2021/08/26 04:56:08;;;;;;;22.55;6.47;;;14.00;99.90;;;;;;5095795;28;20027;-69
2021/08/26 04:58:34;;;;;;;22.27;7.22;;;14.00;99.90;;;;;;5095829;28;20024;-69
2021/08/26 05:00:59;;;;;;;17.13;6.75;;;14.00;99.90;;;;;;5095793;28;20493;-69
2021/08/26 05:03:25;;;;;;;26.98;7.68;;;14.00;99.90;;;;;;5095439;28;20492;-69
2021/08/26 05:05:50;;;;;;;22.77;7.45;;;14.00;99.90;;;;;;5095072;28;20031;-69
2021/08/26 05:08:16;;;;;;;19.48;7.20;;;14.00;99.90;;;;;;5093817;28;20069;-69
2021/08/26 05:10:41;;;;;;;24.63;7.55;;;14.00;99.90;;;;;;5095548;28;20513;-69
2021/08/26 05:13:08;;;;;;;25.90;7.95;;;14.00;99.90;;;;;;5095275;28;20035;-69
2021/08/26 05:15:36;;;;;;;17.75;7.13;;;14.00;99.90;;;;;;5095341;28;20518;-69
2021/08/26 05:18:02;;;;;;;20.30;7.25;;;14.00;99.90;;;;;;5095428;28;20047;-69
2021/08/26 05:20:27;;;;;;;28.13;8.07;;;14.00;99.90;;;;;;5094863;28;20378;-69
2021/08/26 05:22:53;;;;;;;21.33;6.28;;;14.00;99.90;;;;;;5095040;28;20024;-69
2021/08/26 05:25:19;;;;;;;25.45;7.57;;;14.00;99.90;;;;;;5095337;28;20085;-69
2021/08/26 05:27:44;;;;;;;21.23;6.88;;;14.00;99.90;;;;;;5093803;28;20024;-69
2021/08/26 05:30:10;;;;;;;21.42;6.57;;;14.00;99.90;;;;;;5076445;28;20381;-69
2021/08/26 05:32:35;;;;;;;21.98;7.10;;;14.10;99.90;;;;;;5093704;28;20024;-69
2021/08/26 05:35:01;;;;;;;22.50;6.47;;;14.10;99.90;;;;;;5094344;28;20044;-69
2021/08/26 05:37:27;;;;;;;26.77;6.93;;;14.10;99.90;;;;;;5095041;28;20024;-69
2021/08/26 05:39:52;;;;;;;20.52;6.78;;;14.10;99.90;;;;;;5094332;28;20043;-69
2021/08/26 05:42:18;;;;;;;23.80;7.03;;;14.10;99.90;;;;;;5094679;28;20024;-66
2021/08/26 05:44:43;;;;;;;28.00;6.63;;;14.10;99.90;;;;;;5089306;28;20047;-66
2021/08/26 05:47:09;;;;;;;26.70;7.47;;;14.20;99.90;;;;;;5077836;28;20031;-66
2021/08/26 05:49:35;;;;;;;30.73;7.45;;;14.20;99.90;;;;;;5092789;28;20035;-66
2021/08/26 05:52:01;;;;;;;20.85;6.70;;;14.40;99.90;;;;;;5078451;28;20056;-66
2021/08/26 05:54:26;;;;;;;24.42;7.10;;;14.50;99.90;;;;;;5073911;28;20082;-67
2021/08/26 05:56:52;;;;;;;22.75;6.53;;;14.60;99.90;;;;;;5072042;28;20104;-66
2021/08/26 05:59:17;;;;;;;19.25;6.40;;;14.60;99.90;;;;;;5073675;28;20381;-66
2021/08/26 06:01:43;;;;;;;24.15;6.65;;;14.60;99.90;;;;;;5073827;28;20017;-67
2021/08/26 06:04:08;;;;;;;20.02;6.68;;;14.70;99.90;;;;;;5073260;28;20362;-66
2021/08/26 06:06:34;;;;;;;20.38;6.68;;;14.70;99.90;;;;;;5074281;28;20048;-67
2021/08/26 06:08:59;;;;;;;26.85;6.18;;;14.70;99.90;;;;;;5073957;28;20027;-66
2021/08/26 06:11:25;;;;;;;26.85;6.72;;;14.70;99.90;;;;;;5074273;28;20090;-66
2021/08/26 06:13:50;;;;;;;22.20;6.40;;;14.60;99.90;;;;;;5074205;28;20043;-66
2021/08/26 06:16:16;;;;;;;18.92;6.05;;;14.60;99.90;;;;;;5073252;28;20024;-66
2021/08/26 06:18:41;;;;;;;19.35;6.22;;;14.70;99.90;;;;;;5071752;28;20032;-66
2021/08/26 06:21:09;;;;;;;13.25;5.30;;;14.60;99.90;;;;;;5073349;28;20021;-66
2021/08/26 06:23:35;;;;;;;20.10;5.82;;;14.70;99.90;;;;;;5071748;28;20025;-65
2021/08/26 06:26:00;;;;;;;16.52;5.38;;;14.60;99.90;;;;;;5073530;28;20029;-66
2021/08/26 06:28:26;;;;;;;18.25;5.88;;;14.60;99.90;;;;;;5072248;28;20024;-66
2021/08/26 06:30:51;;;;;;;16.40;5.75;;;14.60;99.90;;;;;;5072212;28;20393;-66
2021/08/26 06:33:17;;;;;;;12.85;4.82;;;14.70;99.90;;;;;;5073774;28;20070;-66
2021/08/26 06:35:42;;;;;;;12.10;4.95;;;14.60;99.90;;;;;;5073642;28;20119;-65
2021/08/26 06:38:08;;;;;;;14.77;5.65;;;14.60;99.90;;;;;;5055752;28;20052;-65
2021/08/26 06:40:33;;;;;;;18.88;5.65;;;14.50;99.90;;;;;;5072770;28;20100;-65
2021/08/26 06:42:59;;;;;;;15.20;5.40;;;14.50;99.90;;;;;;5072077;28;20036;-66
2021/08/26 06:45:24;;;;;;;12.05;5.55;;;14.50;99.90;;;;;;5073599;28;20033;-65
2021/08/26 06:47:50;;;;;;;18.02;5.45;;;14.50;99.90;;;;;;5073032;28;20040;-65
2021/08/26 06:50:16;;;;;;;16.10;5.68;;;14.50;99.90;;;;;;5072029;28;20043;-66
2021/08/26 06:52:42;;;;;;;16.63;5.90;;;14.60;99.90;;;;;;5080765;28;20420;-65
2021/08/26 06:55:08;;;;;;;22.77;6.35;;;14.60;99.90;;;;;;5077650;28;20031;-66
2021/08/26 06:57:33;;;;;;;22.70;5.45;;;14.70;99.90;;;;;;5077008;28;20042;-65
2021/08/26 06:59:59;;;;;;;14.50;5.25;;;14.60;99.90;;;;;;5075213;28;20094;-65
2021/08/26 07:02:24;;;;;;;16.70;5.90;;;14.60;99.90;;;;;;5076645;28;20394;-65
2021/08/26 07:04:50;;;;;;;15.77;5.70;;;14.80;99.90;;;;;;5062592;28;20530;-66
2021/08/26 07:07:15;;;;;;;16.58;6.00;;;14.90;99.90;;;;;;5076848;28;20045;-66
2021/08/26 07:09:41;;;;;;;18.50;5.72;;;15.00;99.90;;;;;;5066637;28;20032;-65
2021/08/26 07:12:06;;;;;;;15.57;5.60;;;15.10;99.90;;;;;;5065770;28;20397;-66
2021/08/26 07:14:32;;;;;;;16.48;4.95;;;15.20;99.90;;;;;;5076014;28;20021;-66
2021/08/26 07:16:57;;;;;;;20.60;5.47;;;15.40;99.90;;;;;;5076538;28;20029;-66
2021/08/26 07:19:23;;;;;;;14.40;4.95;;;15.40;99.90;;;;;;5076807;28;20020;-66
2021/08/26 07:21:48;;;;;;;17.40;5.35;;;15.60;99.90;;;;;;5076803;28;20177;-67
2021/08/26 07:24:15;;;;;;;15.00;5.05;;;15.90;99.90;;;;;;5076927;28;20526;-67
2021/08/26 07:26:41;;;;;;;14.18;4.47;;;16.30;99.90;;;;;;5076611;28;20470;-66
2021/08/26 07:29:07;;;;;;;10.25;4.75;;;16.50;99.90;;;;;;5076617;28;20048;-66
2021/08/26 07:31:32;;;;;;;12.13;4.28;;;16.80;99.90;;;;;;5075032;28;20020;-66
2021/08/26 07:33:58;;;;;;;14.50;4.20;;;16.80;99.90;;;;;;5076069;28;20049;-66
2021/08/26 07:36:23;;;;;;;17.52;4.38;;;16.90;99.90;;;;;;5077792;28;20060;-63
2021/08/26 07:38:49;;;;;;;15.48;4.78;;;17.00;99.90;;;;;;5057958;28;20473;-65
2021/08/26 07:41:14;;;;;;;13.82;4.45;;;16.90;99.90;;;;;;5076056;28;20036;-66
2021/08/26 07:43:40;;;;;;;19.85;4.90;;;16.60;99.90;;;;;;5077577;28;20160;-65
2021/08/26 07:46:05;;;;;;;17.85;5.78;;;16.10;99.90;;;;;;5075404;28;20542;-66
2021/08/26 07:48:31;;;;;;;30.38;11.15;;;16.00;99.90;;;;;;5076183;28;20021;-67
2021/08/26 07:51:03;;;;;;;19.67;5.13;;;15.90;99.90;;;;;;5080258;28;20394;-66
2021/08/26 07:53:30;;;;;;;14.55;5.00;;;15.80;99.90;;;;;;5084222;28;20024;-67
2021/08/26 07:55:55;;;;;;;13.57;5.00;;;15.90;99.90;;;;;;5081999;28;20035;-66
2021/08/26 07:58:21;;;;;;;16.80;5.20;;;15.80;99.90;;;;;;5075763;28;20385;-66
2021/08/26 08:00:46;;;;;;;14.23;5.63;;;15.80;99.90;;;;;;5075556;28;20032;-66
2021/08/26 08:03:12;;;;;;;20.98;5.45;;;16.00;99.90;;;;;;5071923;28;20035;-66
2021/08/26 08:05:37;;;;;;;20.10;5.45;;;16.10;99.90;;;;;;5073619;28;20039;-66
2021/08/26 08:08:03;;;;;;;21.88;5.43;;;16.70;99.90;;;;;;5079102;28;20028;-66
2021/08/26 08:10:29;;;;;;;13.60;4.72;;;16.80;99.90;;;;;;5075628;28;20017;-66
2021/08/26 08:12:54;;;;;;;13.13;5.47;;;16.80;99.90;;;;;;5068013;28;20024;-67
2021/08/26 08:15:20;;;;;;;18.10;5.10;;;16.80;99.90;;;;;;5075551;28;20028;-66
2021/08/26 08:17:45;;;;;;;18.73;5.70;;;16.80;99.90;;;;;;5073950;28;20440;-66
2021/08/26 08:20:11;;;;;;;14.85;5.18;;;16.70;99.90;;;;;;5089140;28;20024;-66
2021/08/26 08:22:37;;;;;;;13.52;4.72;;;16.70;99.90;;;;;;5096198;28;20017;-66
2021/08/26 08:25:04;;;;;;;17.02;5.25;;;16.70;99.90;;;;;;5084944;28;20032;-66
2021/08/26 08:27:30;;;;;;;18.45;5.57;;;16.60;99.90;;;;;;5069912;28;20029;-66
2021/08/26 08:29:55;;;;;;;19.65;5.45;;;16.40;99.90;;;;;;5066613;28;20145;-66
2021/08/26 08:32:21;;;;;;;19.65;5.32;;;16.30;99.90;;;;;;5056838;28;20029;-66
2021/08/26 08:34:46;;;;;;;17.60;5.35;;;16.40;99.90;;;;;;5055328;28;20510;-66
2021/08/26 08:37:12;;;;;;;22.92;6.25;;;16.30;99.90;;;;;;5055251;28;20098;-66
2021/08/26 08:39:38;;;;;;;18.58;5.30;;;16.30;99.90;;;;;;5080462;28;20024;-66
2021/08/26 08:42:03;;;;;;;21.27;6.95;;;16.40;99.90;;;;;;5080161;28;20017;-66
2021/08/26 08:44:29;;;;;;;13.75;5.80;;;16.30;99.90;;;;;;5078948;28;20060;-66
2021/08/26 08:46:57;;;;;;;21.52;6.63;;;16.20;99.90;;;;;;5076409;28;20111;-66
2021/08/26 08:49:24;;;;;;;23.70;7.20;;;16.10;99.90;;;;;;5075281;28;20021;-66
2021/08/26 08:51:51;;;;;;;25.15;6.68;;;16.10;99.90;;;;;;5081252;28;20024;-66
2021/08/26 08:54:17;;;;;;;18.73;6.43;;;16.10;99.90;;;;;;5082341;28;20401;-66
2021/08/26 08:56:42;;;;;;;19.92;6.65;;;16.10;99.90;;;;;;5080355;28;20036;-66
2021/08/26 08:59:08;;;;;;;25.73;7.03;;;16.20;99.90;;;;;;5082932;28;20024;-66
2021/08/26 09:01:33;;;;;;;22.73;6.85;;;16.30;99.90;;;;;;5079612;28;20031;-66
2021/08/26 09:03:59;;;;;;;20.88;6.60;;;16.50;99.90;;;;;;5074190;28;20086;-67
2021/08/26 09:06:42;;;;;;;21.63;6.90;;;16.80;99.90;;;;;;5074332;28;20024;-66
2021/08/26 09:09:10;;;;;;;13.07;6.30;;;17.50;99.90;;;;;;5075115;28;20028;-67
2021/08/26 09:11:37;;;;;;;19.70;6.30;;;18.60;99.90;;;;;;5071751;28;20437;-67
2021/08/26 09:14:09;;;;;;;16.95;5.45;;;19.20;99.90;;;;;;5076678;28;20016;-66
2021/08/26 09:16:38;;;;;;;18.65;5.90;;;19.00;99.90;;;;;;5082859;28;20031;-66
2021/08/26 09:19:29;;;;;;;14.98;5.97;;;18.90;99.90;;;;;;5078065;28;20044;-66
2021/08/26 09:21:56;;;;;;;16.35;6.25;;;18.60;99.90;;;;;;5078802;28;20024;-67
2021/08/26 09:24:22;;;;;;;19.25;5.53;;;18.40;99.90;;;;;;5073915;28;20108;-66
2021/08/26 09:26:52;;;;;;;20.92;6.22;;;18.30;99.90;;;;;;5053781;28;20552;-66
2021/08/26 09:29:17;;;;;;;19.95;5.90;;;18.10;99.90;;;;;;5075214;28;20514;-66
2021/08/26 09:31:45;;;;;;;19.42;6.40;;;18.10;99.90;;;;;;5056567;28;20028;-66
2021/08/26 09:34:17;;;;;;;17.58;5.82;;;18.20;99.90;;;;;;5073603;28;20056;-66
2021/08/26 09:36:53;;;;;;;18.65;5.95;;;18.20;99.90;;;;;;5076148;28;20020;-66
2021/08/26 09:39:22;;;;;;;19.05;6.20;;;18.20;99.90;;;;;;5070877;28;20043;-66
2021/08/26 09:41:54;;;;;;;18.48;5.75;;;18.00;99.90;;;;;;5074240;28;20386;-66
2021/08/26 09:44:30;;;;;;;19.05;5.45;;;18.00;99.90;;;;;;5089922;28;20801;-66
2021/08/26 09:46:59;;;;;;;17.52;5.57;;;17.90;99.90;;;;;;5073661;28;20028;-66
2021/08/26 09:49:27;;;;;;;21.85;7.05;;;18.00;99.90;;;;;;5073271;28;20062;-67
2021/08/26 09:54:49;;;;;;;23.10;6.40;;;18.20;99.90;;;;;;5091860;28;20425;-65
2021/08/26 09:57:33;;;;;;;18.45;5.45;;;18.40;99.90;;;;;;5085056;28;20017;-66
2021/08/26 10:00:00;;;;;;;15.15;5.45;;;18.50;99.90;;;;;;5084869;28;20021;-66
2021/08/26 10:02:28;;;;;;;15.88;5.10;;;18.90;99.90;;;;;;5078709;28;20031;-66
2021/08/26 10:04:54;;;;;;;15.95;5.40;;;18.70;99.90;;;;;;5089747;28;20031;-65
2021/08/26 10:07:20;;;;;;;22.67;6.05;;;18.70;99.90;;;;;;5090075;28;20021;-66
2021/08/26 10:09:46;;;;;;;20.52;5.85;;;18.60;99.90;;;;;;5089084;28;20024;-65
2021/08/26 10:12:14;;;;;;;18.13;5.22;;;18.90;99.90;;;;;;5090352;28;20466;-65
2021/08/26 10:14:42;;;;;;;15.45;5.40;;;18.40;99.90;;;;;;5090710;28;20417;-65
2021/08/26 10:17:09;;;;;;;21.70;6.72;;;18.00;99.90;;;;;;5089614;28;20024;-65
2021/08/26 10:19:35;;;;;;;16.73;5.85;;;18.10;99.90;;;;;;5086864;28;20389;-65
2021/08/26 10:22:01;;;;;;;13.25;6.45;;;17.90;99.90;;;;;;5081530;28;20032;-65
2021/08/26 10:24:27;;;;;;;19.27;6.75;;;18.00;99.90;;;;;;5084345;28;20477;-65
2021/08/26 10:26:59;;;;;;;21.00;7.15;;;17.90;99.90;;;;;;5086218;28;20059;-65
2021/08/26 10:29:25;;;;;;;23.35;6.88;;;17.90;99.90;;;;;;5080697;28;20048;-64
2021/08/26 10:31:55;;;;;;;19.80;8.18;;;18.00;99.90;;;;;;5083556;28;20103;-65
2021/08/26 10:34:23;;;;;;;16.38;6.70;;;18.10;99.90;;;;;;5076568;28;20044;-64
2021/08/26 10:39:41;;;;;;;19.02;7.13;;;18.40;99.90;;;;;;5070416;28;20369;-66
2021/08/26 10:42:30;;;;;;;19.92;6.38;;;19.40;99.90;;;;;;5070680;28;20029;-65
2021/08/26 10:45:19;;;;;;;17.20;5.35;;;20.70;99.90;;;;;;5062650;28;20025;-64
2021/08/26 10:50:29;;;;;;;16.00;5.20;;;21.70;99.90;;;;;;5110152;27;20767;-66
2021/08/26 10:53:15;;;;;;;15.43;5.43;;;22.20;99.90;;;;;;5092832;28;20508;-66
2021/08/26 10:55:46;;;;;;;21.70;6.00;;;21.90;99.90;;;;;;5098233;28;20032;-65
2021/08/26 10:58:33;;;;;;;17.83;5.22;;;21.30;99.90;;;;;;5106143;28;20107;-65
2021/08/26 11:01:01;;;;;;;16.60;5.70;;;21.10;99.90;;;;;;5070582;28;20047;-65
2021/08/26 11:08:59;;;;;;;20.35;6.03;;;20.90;99.90;;;;;;5082549;28;20765;-66
2021/08/26 11:16:43;;;;;;;18.50;5.45;;;20.90;99.90;;;;;;5091139;28;20409;-66
2021/08/26 11:24:31;;;;;;;15.10;5.15;;;22.50;99.90;;;;;;5098093;27;20313;-64
2021/08/26 11:27:05;;;;;;;15.77;5.30;;;21.60;99.90;;;;;;5108198;28;20035;-66
2021/08/26 11:29:31;;;;;;;;;;;21.40;99.90;;;;;;5089222;28;20020;-63
2021/08/26 11:34:45;;;;;;;16.63;5.88;;;21.10;99.90;;;;;;5111208;27;20292;-65
2021/08/26 11:37:15;;;;;;;14.43;6.03;;;21.10;99.90;;;;;;5109600;28;20074;-66
2021/08/26 11:39:44;;;;;;;16.80;6.53;;;21.30;99.90;;;;;;5110680;28;20012;-65
2021/08/26 11:42:20;;;;;;;18.50;6.00;;;21.00;99.90;;;;;;5110088;28;20082;-65
2021/08/26 11:47:58;;;;;;;16.13;5.05;;;21.10;99.90;;;;;;5070469;28;20820;-63
2021/08/26 11:50:28;;;;;;;13.98;5.28;;;21.80;99.90;;;;;;5068622;28;20031;-64
2021/08/26 11:53:03;;;;;;;10.63;4.97;;;21.60;99.90;;;;;;5070036;28;20017;-66
2021/08/26 11:55:32;;;;;;;14.38;5.13;;;21.90;99.90;;;;;;5070674;28;20020;-66
2021/08/26 11:57:59;;;;;;;16.13;5.68;;;22.20;99.90;;;;;;5070620;28;20025;-65
2021/08/26 12:00:27;;;;;;;15.30;4.97;;;22.00;99.90;;;;;;5077381;28;20021;-66
2021/08/26 12:02:55;;;;;;;15.48;5.05;;;21.90;99.90;;;;;;5070258;28;20021;-65
2021/08/26 12:05:21;;;;;;;11.65;4.18;;;21.90;99.90;;;;;;5068428;28;20091;-65
2021/08/26 12:07:49;;;;;;;12.52;4.00;;;22.00;99.90;;;;;;5069820;28;20532;-64
2021/08/26 12:10:18;;;;;;;10.32;4.20;;;22.50;99.90;;;;;;5070113;28;20024;-65
2021/08/26 12:13:03;;;;;;;12.90;3.92;;;22.70;99.90;;;;;;5068673;28;20386;-65
2021/08/26 12:15:35;;;;;;;15.18;5.00;;;22.90;99.90;;;;;;5070171;28;20020;-65
2021/08/26 12:18:10;;;;;;;15.55;4.47;;;22.00;99.90;;;;;;5068903;28;20090;-65
2021/08/26 12:20:42;;;;;;;13.18;4.50;;;21.60;99.90;;;;;;5068726;28;20029;-66
2021/08/26 12:23:08;;;;;;;13.23;5.07;;;21.30;99.90;;;;;;5068485;28;20029;-66
2021/08/26 12:25:37;;;;;;;17.10;4.70;;;21.40;99.90;;;;;;5052237;28;20425;-63
2021/08/26 12:28:05;;;;;;;14.20;4.78;;;21.40;99.90;;;;;;5068483;28;20029;-67
2021/08/26 12:30:37;;;;;;;11.95;4.22;;;21.40;99.90;;;;;;5069796;28;20013;-65
2021/08/26 12:33:22;;;;;;;10.60;4.15;;;21.60;99.90;;;;;;5069432;28;20027;-65
2021/08/26 12:38:33;;;;;;;12.50;3.78;;;22.10;99.90;;;;;;5068336;28;20370;-66
2021/08/26 12:41:01;;;;;;;13.05;4.03;;;22.50;99.90;;;;;;5033895;28;20045;-66
2021/08/26 12:43:39;;;;;;;14.13;4.30;;;22.10;99.90;;;;;;5041580;28;20529;-65
2021/08/26 12:46:07;;;;;;;15.15;3.88;;;22.00;99.90;;;;;;5035137;28;20030;-65
2021/08/26 12:48:36;;;;;;;11.20;3.78;;;21.90;99.90;;;;;;5056939;28;20022;-65
2021/08/26 12:51:06;;;;;;;12.02;3.80;;;21.60;99.90;;;;;;5046611;28;20020;-65
2021/08/26 12:53:32;;;;;;;11.98;3.75;;;21.50;99.90;;;;;;5048946;28;20379;-66
2021/08/26 12:56:01;;;;;;;11.55;4.20;;;21.70;99.90;;;;;;5049881;28;20025;-65
2021/08/26 12:58:27;;;;;;;13.95;4.55;;;21.50;99.90;;;;;;5041749;28;20041;-65
2021/08/26 13:00:53;;;;;;;12.60;4.28;;;21.00;99.90;;;;;;5035094;28;20029;-65
2021/08/26 13:03:18;;;;;;;13.77;4.20;;;20.50;99.90;;;;;;5044862;28;20036;-65
2021/08/26 13:05:47;;;;;;;12.75;4.10;;;20.30;99.90;;;;;;5050238;28;20340;-65
2021/08/26 13:08:13;;;;;;;13.00;4.18;;;20.30;99.90;;;;;;5049975;28;20471;-65
2021/08/26 13:10:39;;;;;;;11.10;4.15;;;20.10;99.90;;;;;;5049373;28;20029;-65
2021/08/26 13:13:16;;;;;;;11.35;4.07;;;20.30;99.90;;;;;;5045456;28;20026;-65
2021/08/26 13:15:43;;;;;;;13.70;4.40;;;20.50;99.90;;;;;;5050142;28;20017;-66
2021/08/26 13:18:09;;;;;;;10.27;4.20;;;20.70;99.90;;;;;;5051655;28;20116;-65